^^

Nearby METAR Reports

 

LIRH - Frosinone (it-Af, Italy
Distance from station: SO 5km
Dati ricevuti: 15/07/2020 16:55
Non Attivo
Few Clouds
Few Clouds
 Vento da NE
Vento: NE 13 km/h
Temperatura: 23°C
P.to Rugiada: 18°C
Umidità: 74%
Barometro: 1013 hPa
Clouds: Few Clouds
Visibility: 10 km
Cloud details: Parz. nuvoloso 1067 m
Few Clouds 1219 m
2020/07/15 14:55 LIRH 151455Z 04007KT 9999 SCT035TCU FEW040CB 23/18 Q1013 RETS
LIRL - Latina (it-Afb), Italy
Distance from station: OSO 40km
Dati ricevuti: 15/07/2020 19:55
Non Attivo
Parz. nuvoloso
Parz. nuvoloso
 Vento da SO
Vento: SO 15 km/h
Temperatura: 27°C
Indice di Calore: 29°C
P.to Rugiada: 21°C
Umidità: 70%
Barometro: 1014 hPa
Clouds: Parz. nuvoloso
Visibility: 10 km
Cloud details: Few Clouds 762 m
Parz. nuvoloso 2438 m
2020/07/15 17:55 LIRL 151755Z 23008KT 9999 FEW025 SCT080 27/21 Q1014
 
LIRG - Guidonia (it-Afb, Italy
Distance from station: NO 63km
Dati ricevuti: 15/07/2020 19:55
Non Attivo
Few Clouds
Few Clouds
 Vento da OSO
Vento: OSO 13 km/h
Temperatura: 27°C
Indice di Calore: 27°C
P.to Rugiada: 15°C
Umidità: 48%
Barometro: 1014 hPa
Clouds: Few Clouds
Visibility: 10 km
Cloud details: Few Clouds 1067 m
2020/07/15 17:55 LIRG 151755Z 24007KT 9999 FEW035 27/15 Q1014
LIRA - Ciampino(It-Afb/, Italy
Distance from station: ONO 64km
Dati ricevuti: 16/07/2020 06:20
Sereno
Sereno
 Vento da SE
Vento: SE 6 km/h
Temperatura: 20°C
P.to Rugiada: 13°C
Umidità: 64%
Barometro: 1014 hPa
Summary: Sereno
Visibility: greater than 10 km
2020/07/16 04:20 LIRA 160420Z 13003KT CAVOK 20/13 Q1014
 
LIRU - Roma/Urbe (it-Af, Italy
Distance from station: ONO 76km
Dati ricevuti: 15/07/2020 19:50
Non Attivo
Sereno
Sereno
 Vento da OSO
Vento: OSO 13 km/h
Temperatura: 26°C
P.to Rugiada: 13°C
Umidità: 45%
Barometro: 1013 hPa
Summary: Sereno
Visibility: greater than 10 km
2020/07/15 17:50 LIRU 151750Z 24007KT 200V270 CAVOK 26/13 Q1013
LIRE - Pratica Di Mare(, Italy
Distance from station: O 77km
Dati ricevuti: 16/07/2020 05:55
Few Clouds
Few Clouds
 Vento da NNE
Vento: NNE 4 km/h
Temperatura: 19°C
P.to Rugiada: 17°C
Umidità: 88%
Barometro: 1014 hPa
Clouds: Few Clouds
Visibility: 10 km
Cloud details: Few Clouds 762 m
2020/07/16 03:55 LIRE 160355Z 02002KT 9999 FEW025 19/17 Q1014
 
LIQN - Rieti, Italy
Distance from station: NNO 92km
Dati ricevuti: 15/07/2020 19:50
Non Attivo
Few Clouds
Few Clouds
 Vento da varies
Vento: varies 2 km/h
Temperatura: 21°C
P.to Rugiada: 17°C
Umidità: 78%
Barometro: 1014 hPa
Clouds: Few Clouds
Visibility: 10 km
Cloud details: Few Clouds 2134 m
2020/07/15 17:50 LIQN 151750Z VRB01KT 9999 FEW070CB 21/17 Q1014
LIRK - Terminillo, Italy
Distance from station: NNO 93km
Dati ricevuti: 16/07/2020 05:55

 Vento da N
Vento: N 19 km/h
Temperatura: 9°C
Temperatura del Vento: 6°C
P.to Rugiada: 3°C
Umidità: 66%
Barometro: 1021 hPa
2020/07/16 03:55 LIRK 160355Z AUTO 35010KT //// 09/03 Q1021
 
LIRF - Roma/Fiumicino, Italy
Distance from station: O 94km
Dati ricevuti: 16/07/2020 06:20
Sereno
Sereno
 Vento da E
Vento: E 4 km/h
Temperatura: 18°C
P.to Rugiada: 17°C
Umidità: 94%
Barometro: 1014 hPa
Summary: Sereno
Visibility: greater than 10 km
2020/07/16 04:20 LIRF 160420Z 10002KT CAVOK 18/17 Q1014 NOSIG
LIRM - Grazzanise (it-A, Italy
Distance from station: SE 94km
Dati ricevuti: 16/07/2020 05:55
Sereno
Sereno
 Vento da N
Vento: N 7 km/h
Temperatura: 16°C
P.to Rugiada: 15°C
Umidità: 94%
Barometro: 1014 hPa
Summary: Sereno
Visibility: greater than 10 km
2020/07/16 03:55 LIRM 160355Z 36004KT CAVOK 16/15 Q1014
 
LIBP - Pescara, Italy
Distance from station: NE 108km
Dati ricevuti: 16/07/2020 06:20
Sereno
Sereno
 Vento da OSO
Vento: OSO 9 km/h
Temperatura: 16°C
P.to Rugiada: 15°C
Umidità: 94%
Barometro: 1014 hPa
Clouds: Sereno
Visibility: 10 km
2020/07/16 04:20 LIBP 160420Z AUTO 24005KT 9999 NCD 16/15 Q1014
LIRN - Napoli/Capodichino, Italy
Distance from station: SE 120km
Dati ricevuti: 16/07/2020 06:20
Few Clouds
Few Clouds
 Vento da varies
Vento: varies 2 km/h
Temperatura: 21°C
P.to Rugiada: 17°C
Umidità: 78%
Barometro: 1014 hPa
Clouds: Few Clouds
Visibility: 10 km
Cloud details: Few Clouds 1219 m
2020/07/16 04:20 LIRN 160420Z VRB01KT 9999 FEW040 21/17 Q1014 NOSIG
 
LIRV - Viterbo (it-Mil), Italy
Distance from station: NO 133km
Dati ricevuti: 15/07/2020 21:55
Non Attivo
Sereno
Sereno
 Vento da OSO
Vento: OSO 6 km/h
Temperatura: 20°C
P.to Rugiada: 19°C
Umidità: 94%
Barometro: 1015 hPa
Summary: Sereno
Visibility: greater than 10 km
2020/07/15 19:55 LIRV 151955Z 24003KT CAVOK 20/19 Q1015
LIQC - Capri, Italy
Distance from station: SSE 145km
Dati ricevuti: 15/07/2020 19:55
Non Attivo
Few Clouds
Few Clouds
 Vento da O
Vento: O 7 km/h
Temperatura: 26°C
P.to Rugiada: 18°C
Umidità: 61%
Barometro: 1014 hPa
Clouds: Few Clouds
Visibility: 10 km
Cloud details: Few Clouds 762 m
2020/07/15 17:55 LIQC 151755Z 27004KT 9999 FEW025 26/18 Q1014 RMK FEW QUK 1 QUL 0 VIS MAR 20 KM VIS MIN 9999
 
LIRT - Trevico, Italy
Distance from station: ESE 172km
Dati ricevuti: 15/07/2020 11:55
Non Attivo
Few Clouds
Few Clouds
 Vento da O
Vento: O 17 km/h
Temperatura: 19°C
P.to Rugiada: 8°C
Umidità: 49%
Barometro: 1018 hPa
Clouds: Few Clouds
Visibility: 10 km
Cloud details: Few Clouds 122 m
2020/07/15 09:55 LIRT 150955Z 27009KT 9999 FEW004 19/08 Q1018
LIRZ - Perugia, Italy
Distance from station: NNO 172km
Dati ricevuti: 16/07/2020 06:20
Molto nuvoloso
Molto nuvoloso
 Vento da N
Vento: N 6 km/h
Temperatura: 15°C
P.to Rugiada: 15°C
Umidità: 100%
Barometro: 1015 hPa
Clouds: Molto nuvoloso
Visibility: 10 km
Cloud details: Molto nuvoloso 945 m
2020/07/16 04:20 LIRZ 160420Z AUTO 36003KT 9999 BKN031/// 15/15 Q1015
 
LIRI - Pontecagnano (af, Italy
Distance from station: SE 177km
Dati ricevuti: 15/07/2020 18:50
Non Attivo
Sereno
Sereno
 Vento da SSO
Vento: SSO 11 km/h
Temperatura: 26°C
P.to Rugiada: 19°C
Umidità: 65%
Barometro: 1014 hPa
Summary: Sereno
Visibility: greater than 10 km
2020/07/15 16:50 LIRI 151650Z 20006KT CAVOK 26/19 Q1014
LIBF - Foggia/Gino Lisa, Italy
Distance from station: E 183km
Dati ricevuti: 15/07/2020 18:22
Non Attivo
Forte temporale, Pioggia, Hail, Nuvoloso
Forte temporale, Pioggia, Hail, Nuvoloso
 Vento da ENE
Vento: ENE 39 km/h, Raffica: 78 km/h
Temperatura: 16°C
P.to Rugiada: 16°C
Umidità: 100%
Barometro: 1015 hPa
Summary: Forte temporale, Pioggia, Hail
Clouds: Molto nuvoloso
Visibility: 1 km
Cloud details: Molto nuvoloso 457 m
2020/07/15 16:22 LIBF 151622Z 06021G42KT 020V090 0900 +TSRAGR BKN015CB 16/16 Q1015
 
LIQO - Monte Argentario, Italy
Distance from station: ONO 195km
Dati ricevuti: 15/07/2020 11:55
Non Attivo
Sereno
Sereno
 Vento da SO
Vento: SO 6 km/h
Temperatura: 24°C
P.to Rugiada: 15°C
Umidità: 57%
Barometro: 1014 hPa
Summary: Sereno
Visibility: greater than 10 km
2020/07/15 09:55 LIQO 150955Z 22003KT CAVOK 24/15 Q1014
LIBA - Amendola (it-Afb, Italy
Distance from station: E 198km
Dati ricevuti: 16/07/2020 05:55
Sereno
Sereno
 Vento da O
Vento: O 7 km/h
Temperatura: 17°C
P.to Rugiada: 16°C
Umidità: 94%
Barometro: 1014 hPa
Summary: Sereno
Visibility: greater than 10 km
2020/07/16 03:55 LIBA 160355Z 28004KT CAVOK 17/16 Q1014
 
LIBN - Lecce (it-Afb), Italy
Dati ricevuti: 16/07/2020 05:55
Molto nuvoloso
Molto nuvoloso
 Vento da NO
Vento: NO 4 km/h
Temperatura: 20°C
P.to Rugiada: 18°C
Umidità: 88%
Barometro: 1013 hPa
Clouds: Molto nuvoloso
Visibility: 10 km
Cloud details: Few Clouds 457 m
Molto nuvoloso 1402 m
2020/07/16 03:55 LIBN 160355Z 32002KT 9999 FEW015TCU BKN046 20/18 Q1013
LIPY - Ancona-Falconara, Italy
Dati ricevuti: 16/07/2020 06:20
Sereno
Sereno
 Vento da SSO
Vento: SSO 6 km/h
Temperatura: 16°C
P.to Rugiada: 15°C
Umidità: 94%
Barometro: 1013 hPa
Clouds: Sereno
2020/07/16 04:20 LIPY 160420Z AUTO 21003KT //// // NCD 16/15 Q1013
 
LICJ - Palermo-Punta Raisi, Italy
Dati ricevuti: 16/07/2020 06:20
Sereno
Sereno
 Vento da SSE
Vento: SSE 7 km/h
Temperatura: 22°C
P.to Rugiada: 20°C
Umidità: 88%
Barometro: 1014 hPa
Summary: Sereno
Visibility: greater than 10 km
2020/07/16 04:20 LICJ 160420Z 16004KT CAVOK 22/20 Q1014
LIEB - Capo Bellavista, Italy
Dati ricevuti: 16/07/2020 05:55
Few Clouds
Few Clouds
 Vento da SSO
Vento: SSO 7 km/h
Temperatura: 24°C
P.to Rugiada: 10°C
Umidità: 41%
Barometro: 1015 hPa
Clouds: Few Clouds
Visibility: 10 km
Cloud details: Few Clouds 914 m
2020/07/16 03:55 LIEB 160355Z 21004KT 9999 FEW030 24/10 Q1015
 
LIEC - Capo Carbonara, Italy
Dati ricevuti: 15/07/2020 22:55
Non Attivo
Sereno
Sereno
 Vento da O
Vento: O 35 km/h
Temperatura: 25°C
P.to Rugiada: 21°C
Umidità: 79%
Barometro: 1014 hPa
Summary: Sereno
Visibility: greater than 10 km
2020/07/15 20:55 LIEC 152055Z 27019KT CAVOK 25/21 Q1014 RMK QUK / QUL / VIS MAR 20 KM VIS MIN 9999
LIED - Cagliari-Decimomannu(It-A, Italy
Dati ricevuti: 16/07/2020 05:55
Sereno
Sereno
 Vento da N
Vento: N 11 km/h
Temperatura: 20°C
P.to Rugiada: 18°C
Umidità: 88%
Barometro: 1015 hPa
Summary: Sereno
Visibility: greater than 10 km
2020/07/16 03:55 LIED 160355Z 35006KT CAVOK 20/18 Q1015
 
LIEE - Cagliari-Elmas(A, Italy
Dati ricevuti: 16/07/2020 06:20
Sereno
Sereno
 Vento da N
Vento: N 13 km/h
Temperatura: 20°C
P.to Rugiada: 19°C
Umidità: 94%
Barometro: 1016 hPa
Summary: Sereno
Visibility: greater than 10 km
2020/07/16 04:20 LIEE 160420Z 35007KT CAVOK 20/19 Q1016
LIEO - Olbia-Costa Smeralda, Italy
Dati ricevuti: 16/07/2020 06:20
Sereno
Sereno
 Vento da OSO
Vento: OSO 28 km/h
Temperatura: 22°C
P.to Rugiada: 15°C
Umidità: 65%
Barometro: 1014 hPa
Summary: Sereno
Visibility: greater than 10 km
2020/07/16 04:20 LIEO 160420Z 24015KT CAVOK 22/15 Q1014
 
LIEA - Alghero, Italy
Dati ricevuti: 16/07/2020 06:20
Few Clouds
Few Clouds
 Vento da SSO
Vento: SSO 7 km/h
Temperatura: 22°C
P.to Rugiada: 18°C
Umidità: 78%
Barometro: 1015 hPa
Clouds: Few Clouds
Visibility: 10 km
Cloud details: Few Clouds 914 m
2020/07/16 04:20 LIEA 160420Z 21004KT 9999 FEW030 22/18 Q1015
LICA - Catanzaro-Lamezia Terme, Italy
Dati ricevuti: 16/07/2020 06:20
Molto nuvoloso
Molto nuvoloso
 Vento da varies
Vento: varies 2 km/h
Temperatura: 20°C
P.to Rugiada: 20°C
Umidità: 100%
Barometro: 1014 hPa
Clouds: Molto nuvoloso
Visibility: 6 km
Cloud details: Molto nuvoloso 3353 m
2020/07/16 04:20 LICA 160420Z AUTO VRB01KT 6000 BKN110/// 20/20 Q1014
 
LIBQ - Cosenza-Monte Scuro, Italy
Dati ricevuti: 16/07/2020 05:55
Parz. nuvoloso
Parz. nuvoloso
 Vento da OSO
Vento: OSO 6 km/h
Temperatura: 13°C
P.to Rugiada: 11°C
Umidità: 88%
Barometro: 1020 hPa
Clouds: Parz. nuvoloso
Visibility: 10 km
Cloud details: Few Clouds 183 m
Parz. nuvoloso 1524 m
2020/07/16 03:55 LIBQ 160355Z 25003KT 9999 FEW006 SCT050 13/11 Q1020
LICR - Reggio Calabria, Italy
Dati ricevuti: 15/07/2020 18:50
Non Attivo
Parz. nuvoloso
Parz. nuvoloso
 Vento da SSO
Vento: SSO 17 km/h
Temperatura: 24°C
P.to Rugiada: 20°C
Umidità: 78%
Barometro: 1015 hPa
Clouds: Parz. nuvoloso
Visibility: 10 km
Cloud details: Parz. nuvoloso 1524 m
2020/07/15 16:50 LICR 151650Z 21009KT 9999 SCT050 24/20 Q1015
 
LIBV - Bari-Gioia Del Colle, Italy
Dati ricevuti: 16/07/2020 05:55
Sereno
Sereno
 Vento da ONO
Vento: ONO 4 km/h
Temperatura: 15°C
P.to Rugiada: 14°C
Umidità: 94%
Barometro: 1014 hPa
Summary: Sereno
Visibility: greater than 10 km
2020/07/16 03:55 LIBV 160355Z 30002KT CAVOK 15/14 Q1014
LIBD - Bari-Palese Macchie, Italy
Dati ricevuti: 16/07/2020 06:20
Sereno
Sereno
 Vento da SO
Vento: SO 7 km/h
Temperatura: 18°C
P.to Rugiada: 16°C
Umidità: 88%
Barometro: 1014 hPa
Summary: Sereno
Visibility: greater than 10 km
2020/07/16 04:20 LIBD 160420Z 23004KT CAVOK 18/16 Q1014
 
LIBR - Brindisi-Casale, Italy
Dati ricevuti: 16/07/2020 06:20
Sereno
Sereno
 Vento da ONO
Vento: ONO 13 km/h
Temperatura: 21°C
P.to Rugiada: 18°C
Umidità: 83%
Barometro: 1013 hPa
Clouds: Sereno
Visibility: 10 km
2020/07/16 04:20 LIBR 160420Z AUTO 29007KT 9999 NCD 21/18 Q1013
LIRT - Trevico, Italy
Dati ricevuti: 15/07/2020 11:55
Non Attivo
Few Clouds
Few Clouds
 Vento da O
Vento: O 17 km/h
Temperatura: 19°C
P.to Rugiada: 8°C
Umidità: 49%
Barometro: 1018 hPa
Clouds: Few Clouds
Visibility: 10 km
Cloud details: Few Clouds 122 m
2020/07/15 09:55 LIRT 150955Z 27009KT 9999 FEW004 19/08 Q1018
 
LICB - Comiso, Italy
Dati ricevuti: 16/07/2020 06:20
Sereno
Sereno
 Vento da ENE
Vento: ENE 6 km/h
Temperatura: 20°C
P.to Rugiada: 19°C
Umidità: 94%
Barometro: 1015 hPa
Clouds: Sereno
Visibility: 10 km
2020/07/16 04:20 LICB 160420Z AUTO 06003KT 030V100 9999 NCD 20/19 Q1015
LICL - Gela, Italy
Dati ricevuti: 15/07/2020 19:55
Non Attivo
Sereno
Sereno
 Vento da SO
Vento: SO 13 km/h
Temperatura: 25°C
P.to Rugiada: 24°C
Umidità: 94%
Summary: Sereno
Visibility: greater than 10 km
2020/07/15 17:55 LICL 151755Z 22007KT 180V260 CAVOK 25/24 Q//// RMK SCT SCT120 QUK 2 QUL 0 VIS MAR 12 KM VIS MIN 9999
 
LIBN - Lecce (it-Afb), Italy
Dati ricevuti: 16/07/2020 05:55
Molto nuvoloso
Molto nuvoloso
 Vento da NO
Vento: NO 4 km/h
Temperatura: 20°C
P.to Rugiada: 18°C
Umidità: 88%
Barometro: 1013 hPa
Clouds: Molto nuvoloso
Visibility: 10 km
Cloud details: Few Clouds 457 m
Molto nuvoloso 1402 m
2020/07/16 03:55 LIBN 160355Z 32002KT 9999 FEW015TCU BKN046 20/18 Q1013
LICJ - Palermo-Punta Raisi, Italy
Dati ricevuti: 16/07/2020 06:20
Sereno
Sereno
 Vento da SSE
Vento: SSE 7 km/h
Temperatura: 22°C
P.to Rugiada: 20°C
Umidità: 88%
Barometro: 1014 hPa
Summary: Sereno
Visibility: greater than 10 km
2020/07/16 04:20 LICJ 160420Z 16004KT CAVOK 22/20 Q1014
 
LICZ - Catania-Sigonella (nas), Italy
Dati ricevuti: 16/07/2020 05:55
Sereno
Sereno
 Vento da NNO
Vento: NNO 7 km/h
Temperatura: 22°C
P.to Rugiada: 21°C
Umidità: 94%
Barometro: 1015 hPa
Summary: Sereno
Visibility: greater than 10 km
2020/07/16 03:55 LICZ 160355Z 34004KT CAVOK 22/21 Q1015
LICC - Catania-Fontanarossa, Italy
Dati ricevuti: 16/07/2020 06:20
Sereno
Sereno
 Vento da varies
Vento: varies 4 km/h
Temperatura: 22°C
P.to Rugiada: 18°C
Umidità: 78%
Barometro: 1014 hPa
Summary: Sereno
Visibility: greater than 10 km
2020/07/16 04:20 LICC 160420Z VRB02KT CAVOK 22/18 Q1014
 
LICT - Trapani-Birgi (a, Italy
Dati ricevuti: 16/07/2020 05:55
Few Clouds
Few Clouds
 Vento da SE
Vento: SE 9 km/h
Temperatura: 20°C
P.to Rugiada: 17°C
Umidità: 83%
Barometro: 1014 hPa
Clouds: Few Clouds
Visibility: 10 km
Cloud details: Few Clouds 610 m
2020/07/16 03:55 LICT 160355Z 13005KT 9999 FEW020 20/17 Q1014
LICD - Agrigento-Lampedusa, Italy
Dati ricevuti: 16/07/2020 06:20
Few Clouds
Few Clouds
 Vento da N
Vento: N 15 km/h
Temperatura: 25°C
P.to Rugiada: 22°C
Umidità: 83%
Barometro: 1015 hPa
Clouds: Few Clouds
Visibility: 10 km
Cloud details: Few Clouds 366 m
2020/07/16 04:20 LICD 160420Z AUTO 01008KT 9999 FEW012/// 25/22 Q1015
 
LICG - Pantelleria(It-A, Italy
Dati ricevuti: 15/07/2020 19:50
Non Attivo
Few Clouds
Few Clouds
 Vento da ONO
Vento: ONO 6 km/h
Temperatura: 24°C
P.to Rugiada: 21°C
Umidità: 83%
Barometro: 1016 hPa
Clouds: Few Clouds
Visibility: 10 km
Cloud details: Few Clouds 610 m
2020/07/15 17:50 LICG 151750Z 30003KT 9999 FEW020 24/21 Q1016
LIPX - Villafranca(Cv/M, Italy
Dati ricevuti: 16/07/2020 06:20
Sereno
Sereno
 Vento da SSO
Vento: SSO 6 km/h
Temperatura: 17°C
P.to Rugiada: 14°C
Umidità: 83%
Barometro: 1014 hPa
Clouds: Sereno
Visibility: 10 km
2020/07/16 04:20 LIPX 160420Z AUTO 20003KT 9999 NCD 17/14 Q1014
 
LIPO - Brescia/Montichiari, Italy
Dati ricevuti: 16/07/2020 05:50
Sereno
Sereno
 Vento da varies
Vento: varies 4 km/h
Temperatura: 18°C
P.to Rugiada: 14°C
Umidità: 78%
Barometro: 1014 hPa
Summary: Sereno
Visibility: greater than 10 km
2020/07/16 03:50 LIPO 160350Z VRB02KT CAVOK 18/14 Q1014
LIPL - Ghedi (it-Afb), Italy
Dati ricevuti: 16/07/2020 04:55
Non Attivo
Sereno
Sereno
 Vento da varies
Vento: varies 0 km/h
Temperatura: 19°C
P.to Rugiada: 16°C
Umidità: 83%
Barometro: 1013 hPa
Summary: Sereno
Visibility: greater than 10 km
2020/07/16 02:55 LIPL 160255Z /////KT CAVOK 19/16 Q1013 RMK SKC VIS MIN 9999 WIND THR31 33002KT WIND THR13 32001KT BLU
 
LIMP - Parma, Italy
Dati ricevuti: 15/07/2020 22:50
Non Attivo
Sereno
Sereno
 Vento da SSO
Vento: SSO 11 km/h
Temperatura: 22°C
P.to Rugiada: 16°C
Umidità: 69%
Barometro: 1013 hPa
Summary: Sereno
Visibility: greater than 10 km
2020/07/15 20:50 LIMP 152050Z 21006KT 180V260 CAVOK 22/16 Q1013
LIMS - Piacenza (it-Afb, Italy
Dati ricevuti: 15/07/2020 19:55
Non Attivo
Sereno
Sereno
 Vento da OSO
Vento: OSO 9 km/h
Temperatura: 24°C
P.to Rugiada: 14°C
Umidità: 54%
Barometro: 1011 hPa
Summary: Sereno
Visibility: greater than 10 km
2020/07/15 17:55 LIMS 151755Z 25005KT 190V300 CAVOK 24/14 Q1011
 
LIPF - Ferrara (aut), Italy
Dati ricevuti: 15/07/2020 19:55
Non Attivo
Sereno
Sereno
 Vento da O
Vento: O 6 km/h
Temperatura: 25°C
P.to Rugiada: 15°C
Umidità: 54%
Barometro: 1013 hPa
Summary: Sereno
Visibility: greater than 10 km
2020/07/15 17:55 LIPF 151755Z 27003KT CAVOK 25/15 Q1013
LIPE - Bologna/Borgo (a, Italy
Dati ricevuti: 16/07/2020 06:20
Sereno
Sereno
 Vento da SSO
Vento: SSO 6 km/h
Temperatura: 18°C
P.to Rugiada: 15°C
Umidità: 83%
Barometro: 1014 hPa
Summary: Sereno
Visibility: greater than 10 km
2020/07/16 04:20 LIPE 160420Z 21003KT 160V260 CAVOK 18/15 Q1014
 
LIPU - Padova (civ/It-A, Italy
Dati ricevuti: 15/07/2020 08:00
Non Attivo
Sereno
Sereno
 Vento da varies
Vento: varies 6 km/h
Temperatura: 21°C
P.to Rugiada: 14°C
Umidità: 64%
Barometro: 1013 hPa
Summary: Sereno
Visibility: greater than 10 km
2020/07/15 06:00 LIPU 150600Z VRB03KT 230V020 CAVOK 21/14 Q1013
LIME - Bergamo/Orio Ser, Italy
Dati ricevuti: 16/07/2020 06:20
Sereno
Sereno
 Vento da N
Vento: N 4 km/h
Temperatura: 16°C
P.to Rugiada: 14°C
Umidità: 88%
Barometro: 1015 hPa
Summary: Sereno
Visibility: greater than 10 km
2020/07/16 04:20 LIME 160420Z 01002KT CAVOK 16/14 Q1015 NOSIG
 
LIMT - Cisa Pass, Italy
Dati ricevuti: 23/09/2019 13:55
Non Attivo
Nebbia
Nebbia
 Vento da calm
Vento: Calma
Temperatura: 10°C
P.to Rugiada: 10°C
Umidità: 100%
Barometro: 1014 hPa
Summary: Nebbia
Visibility: 0 km
2019/09/23 11:55 LIMT 231155Z 00000KT 0000 FG VV/// 10/10 Q1014 RMK MON INVIS VAL INVIS VIS MIN 0000
LIVC - Cimone Mountain, Italy
Dati ricevuti: 16/07/2020 05:55

 Vento da NO
Vento: NO 13 km/h
Temperatura: 9°C
Temperatura del Vento: 7°C
P.to Rugiada: 4°C
Umidità: 71%
Barometro: 1022 hPa
2020/07/16 03:55 LIVC 160355Z AUTO 31007KT //// 09/04 Q1022
 
LIVP - Paganella Mounta, Italy
Dati ricevuti: 16/07/2020 05:55
Sereno
Sereno
 Vento da SE
Vento: SE 4 km/h
Temperatura: 6°C
P.to Rugiada: 3°C
Umidità: 81%
Barometro: 1020 hPa
Summary: Sereno
Visibility: greater than 10 km
2020/07/16 03:55 LIVP 160355Z 14002KT CAVOK 06/03 Q1020 RMK SCT SCT070 MON LIB VAL FOSCHIA SKC SUP VIS MIN 9999
LIML - Milano/Linate, Italy
Dati ricevuti: 16/07/2020 06:20
Few Clouds
Few Clouds
 Vento da varies
Vento: varies 4 km/h
Temperatura: 17°C
P.to Rugiada: 17°C
Umidità: 100%
Barometro: 1014 hPa
Clouds: Few Clouds
Visibility: 10 km
Cloud details: Few Clouds 4267 m
2020/07/16 04:20 LIML 160420Z AUTO VRB02KT 9999 FEW140/// 17/17 Q1014
 
LIPS - Istrana (it-Afb), Italy
Dati ricevuti: 16/07/2020 05:55
Few Clouds
Few Clouds
 Vento da varies
Vento: varies 0 km/h
Temperatura: 19°C
P.to Rugiada: 18°C
Umidità: 94%
Barometro: 1014 hPa
Clouds: Few Clouds
Visibility: 10 km
Cloud details: Few Clouds 3048 m
2020/07/16 03:55 LIPS 160355Z /////KT 9999 FEW100 19/18 Q1014 RMK FEW VIS MIN 9999 WIND THR26 00000KT WIND THR08 00000KT BLU
LIPH - Treviso(Civ/It-A, Italy
Dati ricevuti: 16/07/2020 06:20
Molto nuvoloso
Molto nuvoloso
 Vento da NNE
Vento: NNE 6 km/h
Temperatura: 19°C
P.to Rugiada: 16°C
Umidità: 83%
Barometro: 1014 hPa
Clouds: Molto nuvoloso
Visibility: 10 km
Cloud details: Molto nuvoloso 884 m
2020/07/16 04:20 LIPH 160420Z AUTO 02003KT 350V050 9999 BKN029/// 19/16 Q1014
 
LIPZ - Venezia/Tessera, Italy
Dati ricevuti: 16/07/2020 06:20
Parz. nuvoloso
Parz. nuvoloso
 Vento da NNE
Vento: NNE 11 km/h
Temperatura: 18°C
P.to Rugiada: 16°C
Umidità: 88%
Barometro: 1014 hPa
Clouds: Parz. nuvoloso
Visibility: 8 km
2020/07/16 04:20 LIPZ 160420Z 02006KT 8000 NSC 18/16 Q1014 NOSIG
LIQW - Sarzana/Luni, Italy
Dati ricevuti: 15/07/2020 13:55
Non Attivo
Temporale, Parz. nuvoloso
Temporale, Parz. nuvoloso
 Vento da E
Vento: E 6 km/h
Temperatura: 24°C
P.to Rugiada: 18°C
Umidità: 69%
Barometro: 1013 hPa
Summary: Temporale
Clouds: Parz. nuvoloso
Visibility: 10 km
Cloud details: Parz. nuvoloso 762 m
Parz. nuvoloso 914 m
2020/07/15 11:55 LIQW 151155Z 10003KT 9999 TS SCT025 SCT030CB 24/18 Q1013
 
LIVR - Rolle Pass, Italy
Dati ricevuti: 16/07/2020 01:55
Non Attivo
Parz. nuvoloso
Parz. nuvoloso
 Vento da N
Vento: N 4 km/h
Temperatura: 8°C
P.to Rugiada: 6°C
Umidità: 87%
Barometro: 1019 hPa
Clouds: Parz. nuvoloso
Visibility: 10 km
Cloud details: Parz. nuvoloso 1524 m
2020/07/15 23:55 LIVR 152355Z 35002KT 9999 SCT050 08/06 Q1019 RMK SCT MON LIB VIS MIN 9999
LIPK - Forli (civ/It-Af, Italy
Dati ricevuti: 15/07/2020 17:50
Non Attivo
Sereno
Sereno
 Vento da OSO
Vento: OSO 17 km/h
Temperatura: 24°C
P.to Rugiada: 13°C
Umidità: 50%
Barometro: 1013 hPa
Summary: Sereno
Visibility: greater than 10 km
2020/07/15 15:50 LIPK 151550Z 24009KT CAVOK 24/13 Q1013
 
LIMV - Giovi Pass, Italy
Dati ricevuti: 15/07/2020 16:02
Non Attivo
Forte temporale, Pioggia, Few clouds
Forte temporale, Pioggia, Few clouds
 Vento da varies
Vento: varies 0 km/h
Temperatura: 18°C
P.to Rugiada: 15°C
Umidità: 83%
Barometro: 1015 hPa
Summary: Forte temporale, Pioggia
Clouds: Few Clouds
Visibility: 8 km
Cloud details: Molto nuvoloso 305 m
Few Clouds 366 m
2020/07/15 14:02 LIMV 151402Z /////KT 8000 +TSRA BKN010CB FEW012TCU 18/15 Q1015 RMK BKN MON LIB VAL FOSCHIA VIS MIN 8000
LIPB - Bolzano(Civ/It-A, Italy
Dati ricevuti: 15/07/2020 22:50
Non Attivo
Few Clouds
Few Clouds
 Vento da varies
Vento: varies 4 km/h
Temperatura: 18°C
P.to Rugiada: 14°C
Umidità: 78%
Barometro: 1015 hPa
Clouds: Few Clouds
Visibility: 10 km
Cloud details: Few Clouds 1829 m
2020/07/15 20:50 LIPB 152050Z VRB02KT 9999 FEW060 18/14 Q1015
 
LIVD - Bolzano-Dobbiaco, Italy
Dati ricevuti: 15/07/2020 19:55
Non Attivo
Molto nuvoloso
Molto nuvoloso
 Vento da varies
Vento: varies 0 km/h
Temperatura: 15°C
P.to Rugiada: 12°C
Umidità: 82%
Barometro: 1018 hPa
Clouds: Molto nuvoloso
Visibility: 10 km
Cloud details: Molto nuvoloso 914 m
2020/07/15 17:55 LIVD 151755Z /////KT 9999 BKN030 15/12 Q1018 RMK BKN VIS MIN 9999 BLU
LIVE - Bolzano-Passo Resia, Italy
Dati ricevuti: 16/07/2020 05:55
Parz. nuvoloso
Parz. nuvoloso
 Vento da N
Vento: N 6 km/h
Temperatura: 10°C
P.to Rugiada: 10°C
Umidità: 100%
Barometro: 1019 hPa
Clouds: Parz. nuvoloso
Visibility: 10 km
Cloud details: Parz. nuvoloso 1219 m
2020/07/16 03:55 LIVE 160355Z 01003KT 9999 SCT040 10/10 Q1019 RMK BKN SCT060 VIS MIN 9999
 
LIMH - Aosta-Pian Rosa (mtn T, Italy
Dati ricevuti: 16/07/2020 05:55

 Vento da NE
Vento: NE 24 km/h
Visibility: 7 km
2020/07/16 03:55 LIMH 160355Z 05013KT 7000 FEW/// SCT020 M03/M04 Q1025 RMK BKN MON CLDSCT VAL CLD SCT VIS MIN 7000
LIMZ - Cuneo/Levaldigi, Italy
Dati ricevuti: 15/07/2020 20:50
Non Attivo
Parz. nuvoloso
Parz. nuvoloso
 Vento da S
Vento: S 11 km/h
Temperatura: 20°C
P.to Rugiada: 16°C
Umidità: 78%
Barometro: 1014 hPa
Clouds: Parz. nuvoloso
Visibility: 8 km
Cloud details: Parz. nuvoloso 914 m
2020/07/15 18:50 LIMZ 151850Z 18006KT 8000 SCT030 20/16 Q1014
 
LIMK - Torino-Bric Della Croce, Italy
Dati ricevuti: 16/07/2020 00:55
Non Attivo
Sereno
Sereno
 Vento da NNE
Vento: NNE 7 km/h
Temperatura: 20°C
P.to Rugiada: 20°C
Umidità: 100%
Barometro: 1016 hPa
Summary: Sereno
Visibility: greater than 10 km
2020/07/15 22:55 LIMK 152255Z 02004KT CAVOK 20/20 Q1016 RMK SCT SCT070 VAL FOSCHIA VIS MIN 9999
LIMN - Novara-Cameri (it-Afb), Italy
Dati ricevuti: 15/07/2020 19:55
Non Attivo
Parz. nuvoloso
Parz. nuvoloso
 Vento da NO
Vento: NO 9 km/h
Temperatura: 23°C
P.to Rugiada: 16°C
Umidità: 65%
Barometro: 1013 hPa
Clouds: Parz. nuvoloso
Visibility: 10 km
Cloud details: Parz. nuvoloso 1829 m
2020/07/15 17:55 LIMN 151755Z 31005KT 9999 SCT060 23/16 Q1013 RMK BKN SCT080 VIS MIN 9999 BLU
 
LIPA - Pordenone-Aviano (it/Us-Af, Italy
Dati ricevuti: 15/07/2020 19:55
Non Attivo
Parz. nuvoloso
Parz. nuvoloso
 Vento da OSO
Vento: OSO 17 km/h
Temperatura: 23°C
P.to Rugiada: 17°C
Umidità: 69%
Barometro: 1012 hPa
Clouds: Parz. nuvoloso
Visibility: 10 km
Cloud details: Parz. nuvoloso 2134 m
2020/07/15 17:55 LIPA 151755Z 24009KT 9999 SCT070 23/17 Q1012 RMK SCT VIS MIN 9999 WIND THR05 /////KT WIND THR23 /////KT A2991 BLU
LIPI - Udine-Rivolto (it-Afb), Italy
Dati ricevuti: 16/07/2020 05:55
Parz. nuvoloso
Parz. nuvoloso
 Vento da NNO
Vento: NNO 4 km/h
Temperatura: 15°C
P.to Rugiada: 13°C
Umidità: 88%
Barometro: 1014 hPa
Clouds: Parz. nuvoloso
Visibility: 10 km
Cloud details: Parz. nuvoloso 2134 m
2020/07/16 03:55 LIPI 160355Z 34002KT 9999 SCT070 15/13 Q1014 RMK BKN SCT200 VIS MIN 9999 WIND THR06 02003KT WIND THR24 02002KT BLU
 
LIVO - Udine-Tarvisio, Italy
Dati ricevuti: 15/07/2020 19:55
Non Attivo
Molto nuvoloso
Molto nuvoloso
 Vento da SSO
Vento: SSO 9 km/h, Raffica: 28 km/h
Temperatura: 18°C
P.to Rugiada: 12°C
Umidità: 68%
Barometro: 1014 hPa
Clouds: Molto nuvoloso
Visibility: 10 km
Cloud details: Few Clouds 914 m
Molto nuvoloso 1524 m
2020/07/15 17:55 LIVO 151755Z 20005G15KT 9999 FEW030 BKN050 18/12 Q1014 RMK BKN VIS MIN 9999
LIPQ - Trieste-Ronchi Dei Legionari, Italy
Dati ricevuti: 16/07/2020 06:20
Molto nuvoloso
Molto nuvoloso
 Vento da NNE
Vento: NNE 4 km/h
Temperatura: 16°C
P.to Rugiada: 15°C
Umidità: 94%
Barometro: 1014 hPa
Clouds: Molto nuvoloso
Visibility: 10 km
Cloud details: Molto nuvoloso 3962 m
2020/07/16 04:20 LIPQ 160420Z AUTO 03002KT 9999 BKN130/// 16/15 Q1014
 
LIVT - Trieste, Italy
Dati ricevuti: 16/07/2020 05:55
Few Clouds
Few Clouds
 Vento da varies
Vento: varies 0 km/h
Temperatura: 19°C
P.to Rugiada: 16°C
Umidità: 83%
Barometro: 1013 hPa
Clouds: Few Clouds
Visibility: 10 km
Cloud details: Few Clouds 914 m
2020/07/16 03:55 LIVT 160355Z /////KT 9999 FEW030 19/16 Q1013 RMK SCT QUK 0 QUL 0 VIS MAR 20 KM VIS MIN 9999
LIRQ - Firenze/Peretola, Italy
Dati ricevuti: 16/07/2020 06:20
Sereno
Sereno
 Vento da calm
Vento: Calma
Temperatura: 15°C
P.to Rugiada: 15°C
Umidità: 100%
Barometro: 1015 hPa
Summary: Sereno
Visibility: greater than 10 km
2020/07/16 04:20 LIRQ 160420Z 00000KT CAVOK 15/15 Q1015
 
LIPK - Forli (civ/It-Af, Italy
Dati ricevuti: 15/07/2020 17:50
Non Attivo
Sereno
Sereno
 Vento da OSO
Vento: OSO 17 km/h
Temperatura: 24°C
P.to Rugiada: 13°C
Umidità: 50%
Barometro: 1013 hPa
Summary: Sereno
Visibility: greater than 10 km
2020/07/15 15:50 LIPK 151550Z 24009KT CAVOK 24/13 Q1013
LIRS - Grosseto (it-Afb, Italy
Dati ricevuti: 16/07/2020 05:55
Parz. nuvoloso
Parz. nuvoloso
 Vento da NNO
Vento: NNO 9 km/h
Temperatura: 17°C
P.to Rugiada: 14°C
Umidità: 83%
Barometro: 1013 hPa
Clouds: Parz. nuvoloso
Visibility: 10 km
Cloud details: Parz. nuvoloso 1829 m
2020/07/16 03:55 LIRS 160355Z 33005KT 9999 SCT060 17/14 Q1013
 
LIRP - Pisa (civ/It-Afb, Italy
Dati ricevuti: 16/07/2020 06:15
Parz. nuvoloso
Parz. nuvoloso
 Vento da ESE
Vento: ESE 7 km/h
Temperatura: 17°C
P.to Rugiada: 17°C
Umidità: 100%
Barometro: 1014 hPa
Clouds: Parz. nuvoloso
Visibility: 10 km
Cloud details: Few Clouds 914 m
Parz. nuvoloso 2438 m
2020/07/16 04:15 LIRP 160415Z 11004KT 9999 FEW030 SCT080 17/17 Q1014 NOSIG
LIVF - Frontone, Italy
Dati ricevuti: 15/07/2020 23:55
Non Attivo
Sereno
Sereno
 Vento da calm
Vento: Calma
Temperatura: 18°C
P.to Rugiada: 12°C
Umidità: 68%
Barometro: 1015 hPa
Summary: Sereno
Visibility: greater than 10 km
2020/07/15 21:55 LIVF 152155Z 00000KT CAVOK 18/12 Q1015
 
LIPC - Cervia (it-Afb), Italy
Dati ricevuti: 16/07/2020 05:55
Sereno
Sereno
 Vento da OSO
Vento: OSO 11 km/h
Temperatura: 15°C
P.to Rugiada: 14°C
Umidità: 94%
Barometro: 1013 hPa
Summary: Sereno
Visibility: greater than 10 km
2020/07/16 03:55 LIPC 160355Z 25006KT CAVOK 15/14 Q1013
LIPR - Rimini (civ/It-A, Italy
Dati ricevuti: 16/07/2020 06:20
Sereno
Sereno
 Vento da SSO
Vento: SSO 7 km/h
Temperatura: 18°C
P.to Rugiada: 14°C
Umidità: 78%
Barometro: 1013 hPa
Clouds: Sereno
Visibility: 10 km
2020/07/16 04:20 LIPR 160420Z AUTO 20004KT 9999 NCD 18/14 Q1013
 
LIRX - Monte Calamita, Italy
Dati ricevuti: 15/07/2020 19:55
Non Attivo
Sereno
Sereno
 Vento da calm
Vento: Calma
Temperatura: 25°C
P.to Rugiada: 19°C
Umidità: 69%
Barometro: 1014 hPa
Summary: Sereno
Visibility: greater than 10 km
2020/07/15 17:55 LIRX 151755Z 00000KT CAVOK 25/19 Q1014 RMK FEW FEW120 VIS MIN 9999 VIS MAR 20 KM
LIVM - Punta Marina/Rav, Italy
Dati ricevuti: 16/07/2020 05:55

 Vento da varies
Vento: varies 4 km/h
Temperatura: 19°C
P.to Rugiada: 15°C
Umidità: 78%
Barometro: 1013 hPa
2020/07/16 03:55 LIVM 160355Z AUTO VRB02KT //// 19/15 Q1013